x

Big Carlos Pass, Fl (bgcf1) Weather Station

4:54pm - Tue 3rd Mar 2015 All times are EST. -5 hours from GMT.

  • Wind
    9mph, 11mph gusts
  • Air Temp 75°f
  • Sea Pressure 1019.4mb
  • Big Carlos Pass, Fl
  • Big Carlos Pass, Fl

More Historic Weather Station data

Upgrade to MSW Pro to gain access to the past 30 days of data for over 8000 Wavebouys and Weather Stations around the globe.

Join Pro

Comparision Forecast

View Surf forecast
   
Tue 03/03 4:54pm 9 11 mph 1019.4mb 75f
4:48pm 8 10 mph 1019.4mb 75f
3:54pm 8 11 mph 1019mb 75f
3:48pm 7 8 mph 1019.1mb 75f
2:54pm 10 13 mph 1019.4mb 74f
2:48pm 11 14 mph 1019.5mb 74f
1:54pm 14 18 mph 1020.4mb 82f
1:48pm 11 15 mph 1020.5mb 82f
12:54pm 10 14 mph 1021.6mb 81f
12:48pm 9 14 mph 1021.6mb 81f
9:54am 8 14 mph 1023.4mb 75f
9:48am 8 10 mph 1023.4mb 74f
5:54am 7 8 mph 1021.9mb 68f
5:48am 7 8 mph 1021.8mb 68f
4:54am 5 6 mph 1021.2mb 68f
4:48am 5
mph
1021.1mb 68f
3:54am 6 7 mph 1021.4mb 69f
3:48am 6
mph
1021.4mb 69f
1:54am 3 5 mph 1022.2mb 70f
1:48am 2 3 mph 1022.2mb 70f
12:54am 7 10 mph 1022.6mb 71f
12:48am 8 10 mph 1022.7mb 71f
Mon 03/02 9:54pm 5 6 mph 1023.5mb 74f
9:48pm 6 8 mph 1023.5mb 75f
4:54pm 8 11 mph 1021.7mb 75f
4:48pm 9 13 mph 1021.7mb 75f
3:54pm 11 13 mph 1021.7mb 74f
3:48pm 10 13 mph 1021.7mb 75f
2:54pm 7 11 mph 1022.2mb 79f
2:48pm 8 10 mph 1022.2mb 78f
12:54pm 3 6 mph 1023.8mb 82f
12:48pm 6 9 mph 1023.9mb 81f
11:54am 5 7 mph 1024.9mb 80f
11:48am 7 9 mph 1025mb 79f
8:54am 6 7 mph 1025.8mb 69f
8:48am 5 7 mph 1025.8mb 69f
7:54am 6 7 mph 1025.5mb 67f
7:48am 6 7 mph 1025.5mb 67f
6:54am 6 7 mph 1025.3mb 67f
6:48am 6 7 mph 1025.3mb 67f
5:54am 6 7 mph 1024.9mb 67f
5:48am 6 7 mph 1024.8mb 67f
2:54am 6 7 mph 1024.5mb 69f
2:48am 6 7 mph 1024.5mb 69f
Sun 03/01 10:54pm 6 7 mph 1026.1mb 73f
10:48pm 5 6 mph 1026.1mb 73f
9:54pm 3
mph
1026.1mb 73f
9:48pm 3 5 mph 1026.1mb 73f
5:54pm 3 6 mph 1024.1mb 75f
5:48pm 3 5 mph 1024.1mb 75f
3:54pm 10 14 mph 1023.5mb 76f
3:48pm 11 14 mph 1023.5mb 76f
2:54pm 2 6 mph 1023.9mb 83f
2:48pm 5
mph
1023.9mb 82f
1:54pm 7 9 mph 1024.4mb 83f
1:48pm 6 10 mph 1024.5mb 83f
12:54pm 7 11 mph 1025.6mb 82f
12:48pm 8 10 mph 1025.8mb 82f
11:54am 8 11 mph 1026.6mb 80f
11:48am 9 13 mph 1026.6mb 80f
10:54am 10 13 mph 1026.9mb 78f
10:48am 10 14 mph 1027mb 78f
8:54am 10 14 mph 1026.8mb 73f
8:48am 8 11 mph 1026.7mb 73f
7:54am 7 11 mph 1026.1mb 71f
7:48am 8 11 mph 1026.1mb 70f
6:54am 7 9 mph 1025.7mb 70f
6:48am 8 10 mph 1025.6mb 70f
5:54am 8 10 mph 1025.3mb 70f
5:48am 8 11 mph 1025.2mb 70f
Sat 02/28 11:54pm 8 10 mph 1026.1mb 71f
11:48pm 8 10 mph 1026.1mb 71f